Time;durP1;ratioP1;P1;durP2;ratioP2;P2;SDS_P1;SDS_P2;PMS_P1;PMS_P2;Temp;Humidity;BMP_temperature;BMP_pressure;BME280_temperature;BME280_humidity;BME280_pressure;Samples;Min_cycle;Max_cycle;Signal;HPM_P1;HPM_P2
2022/05/12 00:02:22;;;;;;;5.07;4.68;;;;;;;-145.23;100.00;58621.06;5087240;28;20235;-53
2022/05/12 00:04:49;;;;;;;5.53;5.03;;;;;;;-145.23;100.00;58621.06;5089622;27;20226;-52
2022/05/12 00:07:15;;;;;;;6.40;5.80;;;;;;;-145.23;100.00;58621.06;5089858;27;20763;-52
2022/05/12 00:09:41;;;;;;;9.70;5.32;;;;;;;-145.23;100.00;58621.06;5069765;28;20261;-54
2022/05/12 00:12:10;;;;;;;6.15;5.55;;;;;;;-145.23;100.00;58621.06;5073005;28;20262;-52
2022/05/12 00:14:36;;;;;;;6.32;5.80;;;;;;;-145.23;100.00;58621.06;5076803;28;20231;-53
2022/05/12 00:17:04;;;;;;;6.05;5.35;;;;;;;-145.23;100.00;58621.06;5078662;28;20219;-51
2022/05/12 00:19:31;;;;;;;5.60;5.15;;;;;;;-145.23;100.00;58621.06;5081854;28;20231;-52
2022/05/12 00:21:57;;;;;;;5.18;4.68;;;;;;;-145.23;100.00;58621.06;5091168;28;20243;-53
2022/05/12 00:24:24;;;;;;;5.60;5.07;;;;;;;-145.23;100.00;58621.06;5090112;28;20227;-55
2022/05/12 00:26:51;;;;;;;6.47;4.88;;;;;;;-145.23;100.00;58621.06;5083573;28;20251;-51
2022/05/12 00:29:19;;;;;;;7.90;5.10;;;;;;;-145.23;100.00;58621.06;5080056;28;20239;-53
2022/05/12 00:31:48;;;;;;;4.93;4.50;;;;;;;-145.23;100.00;58621.06;5082206;28;20226;-52
2022/05/12 00:34:16;;;;;;;8.48;4.97;;;;;;;-145.23;100.00;58621.06;5079358;28;20778;-52
2022/05/12 00:36:42;;;;;;;5.88;4.22;;;;;;;-145.23;100.00;58621.06;5079177;28;20323;-51
2022/05/12 00:39:09;;;;;;;5.18;4.60;;;;;;;-145.23;100.00;58621.06;5083803;28;20237;-53
2022/05/12 00:41:36;;;;;;;5.88;5.35;;;;;;;-145.23;100.00;58621.06;5085665;28;20238;-53
2022/05/12 00:44:05;;;;;;;5.63;5.13;;;;;;;-145.23;100.00;58621.06;5080692;28;20218;-52
2022/05/12 00:46:35;;;;;;;6.93;4.63;;;;;;;-145.23;100.00;58621.06;5085067;28;20234;-52
2022/05/12 00:49:03;;;;;;;5.40;4.90;;;;;;;-145.23;100.00;58621.06;5083907;28;20342;-51
2022/05/12 00:51:33;;;;;;;4.07;3.72;;;;;;;-145.23;100.00;58621.06;5095895;28;20643;-53
2022/05/12 00:54:02;;;;;;;4.43;3.78;;;;;;;-145.23;100.00;58621.06;5097666;28;20230;-52
2022/05/12 00:56:29;;;;;;;5.13;4.15;;;;;;;-145.23;100.00;58621.06;5087606;27;20272;-52
2022/05/12 00:58:59;;;;;;;4.18;3.85;;;;;;;-145.23;100.00;58621.06;5080980;28;20230;-53
2022/05/12 01:01:26;;;;;;;4.32;3.75;;;;;;;-145.23;100.00;58621.06;5081639;28;20233;-55
2022/05/12 01:03:54;;;;;;;5.65;3.90;;;;;;;-145.23;100.00;58621.06;5080100;28;20243;-52
2022/05/12 01:06:20;;;;;;;3.90;3.33;;;;;;;-145.23;100.00;58621.06;5080030;28;20257;-52
2022/05/12 01:08:47;;;;;;;4.00;3.45;;;;;;;-145.23;100.00;58621.06;5081282;28;20233;-52
2022/05/12 01:11:15;;;;;;;6.00;4.20;;;;;;;-145.23;100.00;58621.06;5081797;28;20335;-52
2022/05/12 01:13:43;;;;;;;6.03;3.10;;;;;;;-145.23;100.00;58621.06;5079489;28;20379;-51
2022/05/12 01:16:09;;;;;;;5.32;3.95;;;;;;;-145.23;100.00;58621.06;5081220;28;20314;-52
2022/05/12 01:18:40;;;;;;;5.25;3.40;;;;;;;-145.23;100.00;58621.06;5086310;28;20239;-52
2022/05/12 01:21:08;;;;;;;5.13;3.42;;;;;;;-145.23;100.00;58621.06;5072469;28;20302;-51
2022/05/12 01:23:37;;;;;;;3.53;3.20;;;;;;;-145.23;100.00;58621.06;5100524;27;20233;-51
2022/05/12 01:26:06;;;;;;;4.40;4.00;;;;;;;-145.23;100.00;58621.06;5082874;28;20215;-52
2022/05/12 01:28:33;;;;;;;4.32;3.90;;;;;;;-145.23;100.00;58621.06;5083690;28;20650;-53
2022/05/12 01:30:59;;;;;;;5.88;4.68;;;;;;;-145.23;100.00;58621.06;5081870;28;20270;-53
2022/05/12 01:33:26;;;;;;;7.28;5.80;;;;;;;-145.23;100.00;58621.06;5082162;28;20226;-53
2022/05/12 01:35:52;;;;;;;6.30;5.80;;;;;;;-145.23;100.00;58621.06;5082623;28;20218;-52
2022/05/12 01:38:19;;;;;;;8.05;6.13;;;;;;;-145.23;100.00;58621.06;5076738;28;20222;-52
2022/05/12 01:40:47;;;;;;;10.38;6.35;;;;;;;-145.23;100.00;58621.06;5081181;28;20238;-52
2022/05/12 01:43:15;;;;;;;5.78;5.28;;;;;;;-145.23;100.00;58621.06;5091874;28;20287;-54
2022/05/12 01:45:41;;;;;;;5.78;5.22;;;;;;;-145.23;100.00;58621.06;5088131;28;20242;-51
2022/05/12 01:48:10;;;;;;;5.97;5.38;;;;;;;-145.23;100.00;58621.06;5078790;28;20280;-52
2022/05/12 01:50:37;;;;;;;10.23;5.35;;;;;;;-145.23;100.00;58621.06;5081528;28;20238;-53
2022/05/12 01:53:04;;;;;;;7.30;5.78;;;;;;;-145.23;100.00;58621.06;5080750;28;20302;-52
2022/05/12 01:55:31;;;;;;;7.68;6.07;;;;;;;-145.23;100.00;58621.06;5084003;28;20231;-53
2022/05/12 01:57:58;;;;;;;5.78;4.97;;;;;;;-145.23;100.00;58621.06;5075101;28;20258;-52
2022/05/12 02:00:27;;;;;;;7.35;6.00;;;;;;;-145.23;100.00;58621.06;5074524;28;20227;-52
2022/05/12 02:02:54;;;;;;;5.40;4.90;;;;;;;-145.23;100.00;58621.06;5092237;28;20246;-59
2022/05/12 02:05:21;;;;;;;5.65;5.05;;;;;;;-145.23;100.00;58621.06;5080279;28;20852;-51
2022/05/12 02:07:49;;;;;;;10.32;5.07;;;;;;;-145.23;100.00;58621.06;5077622;28;20246;-51
2022/05/12 02:10:20;;;;;;;4.25;3.95;;;;;;;-145.23;100.00;58621.06;5080103;28;20230;-52
2022/05/12 02:12:47;;;;;;;4.93;4.43;;;;;;;-145.23;100.00;58621.06;5082277;28;20257;-51
2022/05/12 02:15:15;;;;;;;6.35;4.30;;;;;;;-145.23;100.00;58621.06;5084566;28;20276;-53
2022/05/12 02:17:41;;;;;;;12.80;5.97;;;;;;;-145.23;100.00;58621.06;5080135;28;20712;-52
2022/05/12 02:20:10;;;;;;;8.18;5.95;;;;;;;-145.23;100.00;58621.06;5088063;28;20375;-52
2022/05/12 02:22:37;;;;;;;6.97;5.30;;;;;;;-145.23;100.00;58621.06;5091327;28;20731;-51
2022/05/12 02:25:04;;;;;;;8.98;6.88;;;;;;;-145.23;100.00;58621.06;5094982;28;20243;-53
2022/05/12 02:27:30;;;;;;;9.90;6.13;;;;;;;-145.23;100.00;58621.06;5088038;28;20234;-52
2022/05/12 02:29:57;;;;;;;7.43;6.72;;;;;;;-145.23;100.00;58621.06;5080178;28;20230;-52
2022/05/12 02:32:27;;;;;;;10.35;7.78;;;;;;;-145.23;100.00;58621.06;5078817;28;20697;-52
2022/05/12 02:34:54;;;;;;;10.27;8.15;;;;;;;-145.23;100.00;58621.06;5080000;28;20831;-53
2022/05/12 02:37:20;;;;;;;8.77;7.30;;;;;;;-145.23;100.00;58621.06;5077508;28;20227;-53
2022/05/12 02:39:46;;;;;;;10.02;7.50;;;;;;;-145.23;100.00;58621.06;5072309;28;20701;-55
2022/05/12 02:42:13;;;;;;;10.10;7.82;;;;;;;-145.23;100.00;58621.06;5080484;28;20739;-52
2022/05/12 02:44:39;;;;;;;11.15;10.05;;;;;;;-145.23;100.00;58621.06;5082661;28;20659;-52
2022/05/12 02:47:08;;;;;;;10.95;9.05;;;;;;;-145.23;100.00;58621.06;5085021;28;20234;-52
2022/05/12 02:49:36;;;;;;;10.68;8.00;;;;;;;-145.23;100.00;58621.06;5082858;28;20233;-52
2022/05/12 02:52:04;;;;;;;8.18;7.30;;;;;;;-145.23;100.00;58621.06;5089087;28;20260;-51
2022/05/12 02:54:30;;;;;;;11.52;7.30;;;;;;;-145.23;100.00;58621.06;5101544;28;20290;-52
2022/05/12 02:56:57;;;;;;;10.63;8.73;;;;;;;-145.23;100.00;58621.06;5098499;28;20230;-52
2022/05/12 02:59:24;;;;;;;12.63;8.32;;;;;;;-145.23;100.00;58621.06;5095628;28;20455;-53
2022/05/12 03:01:50;;;;;;;11.88;7.53;;;;;;;-145.23;100.00;58621.06;5100007;28;20237;-52
2022/05/12 03:04:16;;;;;;;11.57;8.75;;;;;;;-145.23;100.00;58621.06;5101129;28;20322;-52
2022/05/12 03:06:44;;;;;;;10.20;8.13;;;;;;;-145.23;100.00;58621.06;5102349;28;20315;-51
2022/05/12 03:09:11;;;;;;;14.15;8.80;;;;;;;-145.23;100.00;58621.06;5096864;28;20781;-53
2022/05/12 03:11:38;;;;;;;11.27;7.97;;;;;;;-145.23;100.00;58621.06;5101237;28;20719;-53
2022/05/12 03:14:04;;;;;;;9.30;8.40;;;;;;;-145.23;100.00;58621.06;5089281;28;20252;-52
2022/05/12 03:16:31;;;;;;;11.95;9.43;;;;;;;-145.23;100.00;58621.06;5079105;28;20294;-53
2022/05/12 03:18:58;;;;;;;12.48;9.20;;;;;;;-145.23;100.00;58621.06;5076258;28;20230;-53
2022/05/12 03:21:24;;;;;;;9.68;8.07;;;;;;;-145.23;100.00;58621.06;5076542;28;20275;-54
2022/05/12 03:23:52;;;;;;;12.98;8.82;;;;;;;-145.23;100.00;58621.06;5083485;28;20235;-54
2022/05/12 03:26:19;;;;;;;8.90;8.07;;;;;;;-145.23;100.00;58621.06;5074579;28;20231;-54
2022/05/12 03:28:46;;;;;;;13.23;8.90;;;;;;;-145.23;100.00;58621.06;5075891;28;20739;-54
2022/05/12 03:31:12;;;;;;;13.55;8.93;;;;;;;-145.23;100.00;58621.06;5081822;28;20604;-54
2022/05/12 03:33:40;;;;;;;8.60;7.43;;;;;;;-145.23;100.00;58621.06;5082710;28;20367;-54
2022/05/12 03:36:07;;;;;;;11.90;8.75;;;;;;;-145.23;100.00;58621.06;5086540;28;20230;-53
2022/05/12 03:38:34;;;;;;;12.95;9.80;;;;;;;-145.23;100.00;58621.06;5099882;28;20313;-52
2022/05/12 03:41:02;;;;;;;10.90;8.50;;;;;;;-145.23;100.00;58621.06;5079444;28;20235;-54
2022/05/12 03:46:13;;;;;;;10.80;7.80;;;;;;;-145.23;100.00;58621.06;5084107;28;20256;-55
2022/05/12 03:48:40;;;;;;;9.68;7.13;;;;;;;-145.23;100.00;58621.06;5081505;28;20223;-54
2022/05/12 03:51:07;;;;;;;13.18;9.30;;;;;;;-145.23;100.00;58621.06;5084357;28;20242;-54
2022/05/12 03:53:34;;;;;;;7.75;7.07;;;;;;;-145.23;100.00;58621.06;5087636;28;20685;-55
2022/05/12 03:56:02;;;;;;;11.73;8.13;;;;;;;-145.23;100.00;58621.06;5079521;28;20238;-54
2022/05/12 03:58:29;;;;;;;8.05;6.35;;;;;;;-145.23;100.00;58621.06;5076122;28;20241;-55
2022/05/12 04:00:55;;;;;;;10.68;7.45;;;;;;;-145.23;100.00;58621.06;5078144;28;21053;-56
2022/05/12 04:03:21;;;;;;;10.05;7.88;;;;;;;-145.23;100.00;58621.06;5068710;28;20263;-58
2022/05/12 04:05:48;;;;;;;10.93;8.38;;;;;;;-145.23;100.00;58621.06;5075793;28;20866;-56
2022/05/12 04:08:15;;;;;;;7.75;6.57;;;;;;;-145.23;100.00;58621.06;5092414;28;20760;-56
2022/05/12 04:10:41;;;;;;;13.43;7.85;;;;;;;-145.23;100.00;58621.06;5095320;28;20234;-56
2022/05/12 04:13:09;;;;;;;9.88;8.52;;;;;;;-145.23;100.00;58621.06;5102425;28;20228;-56
2022/05/12 04:15:35;;;;;;;10.45;7.70;;;;;;;-145.23;100.00;58621.06;5097627;28;20279;-56
2022/05/12 04:18:04;;;;;;;8.05;6.70;;;;;;;-145.23;100.00;58621.06;5105052;28;20298;-56
2022/05/12 04:20:32;;;;;;;8.20;7.03;;;;;;;-145.23;100.00;58621.06;5101023;28;20233;-56
2022/05/12 04:22:59;;;;;;;8.35;7.30;;;;;;;-145.23;100.00;58621.06;5102198;28;20279;-56
2022/05/12 04:25:26;;;;;;;6.57;6.05;;;;;;;-145.23;100.00;58621.06;5105633;28;20303;-56
2022/05/12 04:27:53;;;;;;;6.70;6.10;;;;;;;-145.23;100.00;58621.06;5103277;28;20699;-55
2022/05/12 04:30:24;;;;;;;10.40;6.38;;;;;;;-145.23;100.00;58621.06;5106980;27;20248;-54
2022/05/12 04:32:51;;;;;;;11.23;6.40;;;;;;;-145.23;100.00;58621.06;5108664;27;20283;-54
2022/05/12 04:35:16;;;;;;;7.78;6.63;;;;;;;-145.23;100.00;58621.06;5102193;28;20258;-54
2022/05/12 04:37:45;;;;;;;8.05;7.25;;;;;;;-145.23;100.00;58621.06;5106757;28;20714;-54
2022/05/12 04:40:14;;;;;;;11.32;6.47;;;;;;;-145.23;100.00;58621.06;5105928;28;20229;-53
2022/05/12 04:42:40;;;;;;;7.85;6.18;;;;;;;-145.23;100.00;58621.06;5107306;27;20303;-54
2022/05/12 04:45:09;;;;;;;7.95;5.85;;;;;;;-145.23;100.00;58621.06;5102824;28;20238;-53
2022/05/12 04:47:38;;;;;;;6.57;5.43;;;;;;;-145.23;100.00;58621.06;5106956;27;20252;-53
2022/05/12 04:50:07;;;;;;;9.23;5.47;;;;;;;-145.23;100.00;58621.06;5095752;28;20227;-54
2022/05/12 04:52:34;;;;;;;7.35;5.75;;;;;;;-145.23;100.00;58621.06;5077681;28;20234;-51
2022/05/12 04:55:00;;;;;;;7.18;5.70;;;;;;;-145.23;100.00;58621.06;5081248;28;20265;-52
2022/05/12 04:57:27;;;;;;;5.95;5.30;;;;;;;-145.23;100.00;58621.06;5088149;28;20235;-53
2022/05/12 04:59:55;;;;;;;7.63;5.20;;;;;;;-145.23;100.00;58621.06;5083329;28;20807;-54
2022/05/12 05:02:22;;;;;;;6.15;4.10;;;;;;;-145.23;100.00;58621.06;5083025;28;20322;-52
2022/05/12 05:04:50;;;;;;;7.10;4.72;;;;;;;-145.23;100.00;58621.06;5080913;28;20296;-53
2022/05/12 05:07:16;;;;;;;6.10;4.57;;;;;;;-145.23;100.00;58621.06;5084623;28;20230;-52
2022/05/12 05:09:43;;;;;;;7.60;4.65;;;;;;;-145.23;100.00;58621.06;5084997;28;20259;-53
2022/05/12 05:12:10;;;;;;;5.88;4.50;;;;;;;-145.23;100.00;58621.06;5094531;28;20233;-52
2022/05/12 05:14:37;;;;;;;7.05;4.07;;;;;;;-145.23;100.00;58621.06;5099034;28;20227;-53
2022/05/12 05:17:04;;;;;;;9.77;3.97;;;;;;;-145.23;100.00;58621.06;5105095;28;20638;-52
2022/05/12 05:19:31;;;;;;;9.40;3.53;;;;;;;-145.23;100.00;58621.06;5103285;28;20287;-51
2022/05/12 05:21:58;;;;;;;5.20;3.13;;;;;;;-145.23;100.00;58621.06;5095879;28;20238;-52
2022/05/12 05:24:25;;;;;;;3.35;3.00;;;;;;;-145.23;100.00;58621.06;5100847;28;20253;-52
2022/05/12 05:26:51;;;;;;;6.55;2.92;;;;;;;-145.23;100.00;58621.06;5102445;28;20610;-54
2022/05/12 05:29:17;;;;;;;4.43;3.40;;;;;;;-145.23;100.00;58621.06;5102517;28;20583;-53
2022/05/12 05:31:44;;;;;;;5.43;3.22;;;;;;;-145.23;100.00;58621.06;5099394;27;20252;-51
2022/05/12 05:34:10;;;;;;;3.90;2.92;;;;;;;-145.23;100.00;58621.06;5096983;28;20301;-52
2022/05/12 05:36:39;;;;;;;2.50;2.35;;;;;;;-145.23;100.00;58621.06;5080526;28;20253;-52
2022/05/12 05:39:07;;;;;;;2.35;2.05;;;;;;;-145.23;100.00;58621.06;5083339;28;20237;-53
2022/05/12 05:41:35;;;;;;;5.32;2.10;;;;;;;-145.23;100.00;58621.06;5074227;28;20749;-53
2022/05/12 05:44:01;;;;;;;3.58;2.20;;;;;;;-145.23;100.00;58621.06;5092195;28;20229;-52
2022/05/12 05:46:28;;;;;;;6.57;2.53;;;;;;;-145.23;100.00;58621.06;5081665;28;20724;-54
2022/05/12 05:48:55;;;;;;;4.28;1.92;;;;;;;-145.23;100.00;58621.06;5089798;28;20227;-53
2022/05/12 05:54:07;;;;;;;3.17;2.00;;;;;;;-145.23;100.00;58621.06;5084919;27;20249;-53
2022/05/12 05:56:33;;;;;;;3.25;2.22;;;;;;;-145.23;100.00;58621.06;5072326;28;20227;-53
2022/05/12 05:59:00;;;;;;;2.65;2.03;;;;;;;-145.23;100.00;58621.06;5079692;28;20640;-51
2022/05/12 06:01:26;;;;;;;4.80;2.25;;;;;;;-145.23;100.00;58621.06;5080374;28;20679;-52
2022/05/12 06:03:53;;;;;;;4.22;1.73;;;;;;;-145.23;100.00;58621.06;5084653;27;20878;-52
2022/05/12 06:06:20;;;;;;;4.07;2.63;;;;;;;-145.23;100.00;58621.06;5085455;28;20232;-52
2022/05/12 06:08:46;;;;;;;5.20;2.70;;;;;;;-145.23;100.00;58621.06;5098593;28;20237;-52
2022/05/12 06:11:14;;;;;;;4.68;2.60;;;;;;;-145.23;100.00;58621.06;5088790;28;20230;-52
2022/05/12 06:13:41;;;;;;;2.80;1.60;;;;;;;-145.23;100.00;58621.06;5096506;28;20226;-52
2022/05/12 06:16:07;;;;;;;1.70;1.60;;;;;;;-145.23;100.00;58621.06;5083514;28;20219;-51
2022/05/12 06:18:36;;;;;;;2.75;1.52;;;;;;;-145.23;100.00;58621.06;5075560;28;20270;-54
2022/05/12 06:21:04;;;;;;;3.50;1.73;;;;;;;-145.23;100.00;58621.06;5083745;28;20234;-53
2022/05/12 06:23:32;;;;;;;5.20;2.03;;;;;;;-145.23;100.00;58621.06;5080771;28;20242;-52
2022/05/12 06:25:58;;;;;;;7.13;2.03;;;;;;;-145.23;100.00;58621.06;5102633;28;20228;-53
2022/05/12 06:28:26;;;;;;;6.63;2.03;;;;;;;-145.23;100.00;58621.06;5101080;28;20723;-53
2022/05/12 06:30:52;;;;;;;6.05;1.95;;;;;;;-145.23;100.00;58621.06;5101075;28;20234;-51
2022/05/12 06:33:20;;;;;;;2.78;1.52;;;;;;;-145.23;100.00;58621.06;5102031;28;20229;-51
2022/05/12 06:35:47;;;;;;;2.25;2.05;;;;;;;-145.23;100.00;58621.06;5078369;28;20222;-53
2022/05/12 06:38:14;;;;;;;4.20;1.77;;;;;;;-145.23;100.00;58621.06;5079821;28;20234;-51
2022/05/12 06:40:41;;;;;;;3.38;1.48;;;;;;;-145.23;100.00;58621.06;5081578;28;20322;-51
2022/05/12 06:43:08;;;;;;;1.15;1.02;;;;;;;-145.23;100.00;58621.06;5104673;28;20668;-54
2022/05/12 06:45:36;;;;;;;2.63;1.23;;;;;;;-145.23;100.00;58621.06;5101994;28;20661;-52
2022/05/12 06:48:03;;;;;;;2.28;1.65;;;;;;;-145.23;100.00;58621.06;5103583;28;20229;-57
2022/05/12 06:50:31;;;;;;;6.72;1.63;;;;;;;-145.23;100.00;58621.06;5102909;28;20660;-53
2022/05/12 06:52:58;;;;;;;2.88;1.35;;;;;;;-145.23;100.00;58621.06;5105669;28;20220;-53
2022/05/12 06:55:27;;;;;;;4.97;1.83;;;;;;;-145.23;100.00;58621.06;5104289;28;20303;-52
2022/05/12 06:57:55;;;;;;;2.95;1.65;;;;;;;-145.23;100.00;58621.06;5108675;28;20645;-52
2022/05/12 07:00:22;;;;;;;2.90;1.30;;;;;;;-145.23;100.00;58621.06;5102917;28;20679;-53
2022/05/12 07:02:51;;;;;;;2.80;1.50;;;;;;;-145.23;100.00;58621.06;5106090;28;20237;-53
2022/05/12 07:05:20;;;;;;;1.13;0.98;;;;;;;-145.23;100.00;58621.06;5102533;28;20246;-53
2022/05/12 07:07:47;;;;;;;2.97;1.33;;;;;;;-145.23;100.00;58621.06;5105839;28;20738;-55
2022/05/12 07:10:14;;;;;;;6.97;1.35;;;;;;;-145.23;100.00;58621.06;5099652;28;20234;-53
2022/05/12 07:12:41;;;;;;;1.83;1.10;;;;;;;-145.23;100.00;58621.06;5102256;28;20226;-52
2022/05/12 07:15:09;;;;;;;3.63;1.30;;;;;;;-145.23;100.00;58621.06;5099709;28;20378;-57
2022/05/12 07:17:37;;;;;;;1.33;1.23;;;;;;;-145.23;100.00;58621.06;5097543;28;20266;-51
2022/05/12 07:28:19;;;;;;;1.58;1.02;;;;;;;-145.23;100.00;58621.06;5100754;28;20272;-52
2022/05/12 07:31:03;;;;;;;2.10;1.20;;;;;;;-145.23;100.00;58621.06;5104459;28;20785;-52
2022/05/12 07:33:34;;;;;;;1.67;0.80;;;;;;;-145.23;100.00;58621.06;5107734;28;20715;-52
2022/05/12 07:36:04;;;;;;;1.08;0.90;;;;;;;-145.23;100.00;58621.06;5103793;28;20222;-51
2022/05/12 07:38:31;;;;;;;0.80;0.70;;;;;;;-145.23;100.00;58621.06;5100235;28;20259;-53
2022/05/12 07:40:57;;;;;;;4.05;1.02;;;;;;;-145.23;100.00;58621.06;5104654;28;20222;-52
2022/05/12 07:43:24;;;;;;;0.95;0.63;;;;;;;-145.23;100.00;58621.06;5104327;28;20238;-52
2022/05/12 07:45:50;;;;;;;14.05;7.32;;;;;;;-145.23;100.00;58621.06;5102361;28;20234;-52
2022/05/12 07:48:17;;;;;;;9.02;7.85;;;;;;;-145.23;100.00;58621.06;5097101;28;20284;-53
2022/05/12 07:50:43;;;;;;;15.68;12.40;;;;;;;-145.23;100.00;58621.06;5094746;28;20287;-53
2022/05/12 07:53:11;;;;;;;2.30;2.03;;;;;;;-145.23;100.00;58621.06;5103430;28;20230;-51
2022/05/12 07:55:38;;;;;;;3.92;1.40;;;;;;;-145.23;100.00;58621.06;5102510;27;20233;-52
2022/05/12 07:58:05;;;;;;;2.28;1.15;;;;;;;-145.23;100.00;58621.06;5109543;27;20232;-52
2022/05/12 08:00:32;;;;;;;4.22;1.58;;;;;;;-145.23;100.00;58621.06;5109242;28;20297;-51
2022/05/12 08:02:58;;;;;;;3.20;1.35;;;;;;;-145.23;100.00;58621.06;5099754;27;20264;-54
2022/05/12 08:05:25;;;;;;;1.20;1.10;;;;;;;-145.23;100.00;58621.06;5111130;28;20651;-53
2022/05/12 08:07:52;;;;;;;2.30;0.80;;;;;;;-145.23;100.00;58621.06;5109149;28;20361;-51
2022/05/12 08:10:20;;;;;;;1.08;0.82;;;;;;;-145.23;100.00;58621.06;5105996;27;20241;-52
2022/05/12 08:12:47;;;;;;;1.75;1.17;;;;;;;-145.23;100.00;58621.06;5105835;28;20654;-52
2022/05/12 08:15:13;;;;;;;2.95;1.20;;;;;;;-145.23;100.00;58621.06;5097985;28;20421;-57
2022/05/12 08:17:40;;;;;;;2.50;1.48;;;;;;;-145.23;100.00;58621.06;5110033;28;20234;-53
2022/05/12 08:20:08;;;;;;;1.52;1.00;;;;;;;-145.23;100.00;58621.06;5106280;28;20679;-51
2022/05/12 08:22:34;;;;;;;1.08;0.75;;;;;;;-145.23;100.00;58621.06;5103568;27;20732;-51
2022/05/12 08:25:04;;;;;;;3.35;0.90;;;;;;;-145.23;100.00;58621.06;5101259;28;20234;-52
2022/05/12 08:27:32;;;;;;;1.85;0.93;;;;;;;-145.23;100.00;58621.06;5095220;27;20295;-52
2022/05/12 08:29:58;;;;;;;4.00;1.00;;;;;;;-145.23;100.00;58621.06;5098516;28;20222;-51
2022/05/12 08:32:25;;;;;;;2.38;1.30;;;;;;;-145.23;100.00;58621.06;5105691;28;20267;-52
2022/05/12 08:34:51;;;;;;;0.70;0.70;;;;;;;-145.23;100.00;58621.06;5102856;27;20235;-52
2022/05/12 08:37:19;;;;;;;2.78;1.10;;;;;;;-145.23;100.00;58621.06;5109761;28;20236;-52
2022/05/12 08:39:46;;;;;;;3.10;1.10;;;;;;;-145.23;100.00;58621.06;5106343;28;20230;-53
2022/05/12 08:42:16;;;;;;;1.17;0.80;;;;;;;-145.23;100.00;58621.06;5095086;27;20424;-52
2022/05/12 08:44:44;;;;;;;2.10;1.10;;;;;;;-145.23;100.00;58621.06;5099357;28;20238;-52
2022/05/12 08:47:13;;;;;;;2.60;0.93;;;;;;;-145.23;100.00;58621.06;5081276;28;20227;-52
2022/05/12 08:49:41;;;;;;;0.80;0.60;;;;;;;-145.23;100.00;58621.06;5092296;28;20226;-51
2022/05/12 08:52:11;;;;;;;1.40;1.00;;;;;;;-145.23;100.00;58621.06;5098084;28;20237;-52
2022/05/12 08:54:40;;;;;;;1.10;1.00;;;;;;;-145.23;100.00;58621.06;5101069;28;20233;-53
2022/05/12 08:57:09;;;;;;;5.18;1.70;;;;;;;-145.23;100.00;58621.06;5095644;28;20250;-53
2022/05/12 08:59:36;;;;;;;1.85;1.00;;;;;;;-145.23;100.00;58621.06;5096506;28;20228;-52
2022/05/12 09:02:10;;;;;;;2.65;1.00;;;;;;;-145.23;100.00;58621.06;5101977;28;20642;-52
2022/05/12 09:04:59;;;;;;;2.78;1.15;;;;;;;-145.23;100.00;58621.06;5096803;28;20237;-52
2022/05/12 09:07:28;;;;;;;1.48;1.38;;;;;;;-145.23;100.00;58621.06;5079338;28;20223;-52
2022/05/12 09:09:59;;;;;;;1.60;1.10;;;;;;;-145.23;100.00;58621.06;5079853;28;20239;-52
2022/05/12 09:12:33;;;;;;;2.70;1.73;;;;;;;-145.23;100.00;58621.06;5096912;28;20663;-52
2022/05/12 09:15:03;;;;;;;4.55;1.65;;;;;;;-145.23;100.00;58621.06;5083258;28;20218;-53
2022/05/12 09:17:37;;;;;;;5.47;2.55;;;;;;;-145.23;100.00;58621.06;5099597;27;20246;-53
2022/05/12 09:20:06;;;;;;;2.38;1.50;;;;;;;-145.23;100.00;58621.06;5079450;28;20223;-52
2022/05/12 09:22:33;;;;;;;1.75;1.38;;;;;;;-145.23;100.00;58621.06;5090777;28;20407;-54
2022/05/12 09:25:00;;;;;;;2.22;0.90;;;;;;;-145.23;100.00;58621.06;5097678;28;20229;-51
2022/05/12 09:27:28;;;;;;;1.92;1.20;;;;;;;-145.23;100.00;58621.06;5080913;28;20785;-51
2022/05/12 09:29:55;;;;;;;1.17;0.90;;;;;;;-145.23;100.00;58621.06;5082759;28;20219;-53
2022/05/12 09:32:24;;;;;;;3.25;1.15;;;;;;;-145.23;100.00;58621.06;5083362;28;20234;-51
2022/05/12 09:35:09;;;;;;;6.40;1.27;;;;;;;-145.23;100.00;58621.06;5083832;28;20241;-52
2022/05/12 09:37:36;;;;;;;1.05;1.00;;;;;;;-145.23;100.00;58621.06;5095222;28;20235;-52
2022/05/12 09:40:17;;;;;;;2.13;1.35;;;;;;;-145.23;100.00;58621.06;5082890;28;20226;-52
2022/05/12 09:42:45;;;;;;;2.92;1.15;;;;;;;-145.23;100.00;58621.06;5085380;27;20437;-52
2022/05/12 09:45:23;;;;;;;1.48;1.00;;;;;;;-145.23;100.00;58621.06;5092558;28;20242;-52
2022/05/12 09:47:50;;;;;;;4.30;1.83;;;;;;;-145.23;100.00;58621.06;5101537;27;20413;-52
2022/05/12 09:50:22;;;;;;;4.40;1.60;;;;;;;-145.23;100.00;58621.06;5099245;28;20491;-52
2022/05/12 09:52:58;;;;;;;1.33;0.65;;;;;;;-145.23;100.00;58621.06;5101224;28;20233;-51
2022/05/12 09:55:27;;;;;;;1.95;1.20;;;;;;;-145.23;100.00;58621.06;5082802;28;20599;-52
2022/05/12 09:57:56;;;;;;;0.95;0.80;;;;;;;-145.23;100.00;58621.06;5073580;28;20239;-53
2022/05/12 10:00:34;;;;;;;0.90;0.70;;;;;;;-145.23;100.00;58621.06;5083605;28;20596;-52
2022/05/12 10:08:44;;;;;;;2.28;1.20;;;;;;;-145.23;100.00;58621.06;5076602;28;20237;-51
2022/05/12 10:11:14;;;;;;;2.35;1.00;;;;;;;-145.23;100.00;58621.06;5077940;28;20715;-52
2022/05/12 10:13:44;;;;;;;1.63;1.17;;;;;;;-145.23;100.00;58621.06;5078862;28;20234;-51
2022/05/12 10:16:11;;;;;;;1.52;1.25;;;;;;;-145.23;100.00;58621.06;5085172;28;20416;-51
2022/05/12 10:18:42;;;;;;;0.95;0.80;;;;;;;-145.23;100.00;58621.06;5078015;28;20269;-53
2022/05/12 10:21:15;;;;;;;0.70;0.70;;;;;;;-145.23;100.00;58621.06;5088133;28;20234;-52
2022/05/12 10:23:47;;;;;;;2.30;1.05;;;;;;;-145.23;100.00;58621.06;5100442;28;20222;-51
2022/05/12 10:26:17;;;;;;;2.85;1.00;;;;;;;-145.23;100.00;58621.06;5093942;28;20241;-52
2022/05/12 10:28:51;;;;;;;5.72;1.17;;;;;;;-145.23;100.00;58621.06;5090001;28;20234;-52
2022/05/12 10:31:27;;;;;;;1.40;0.65;;;;;;;-145.23;100.00;58621.06;5091500;28;20731;-54
2022/05/12 10:34:03;;;;;;;2.08;1.00;;;;;;;-145.23;100.00;58621.06;5083787;28;20238;-60
2022/05/12 10:36:40;;;;;;;1.20;0.73;;;;;;;-145.23;100.00;58621.06;5087255;28;20730;-53
2022/05/12 10:39:13;;;;;;;2.50;1.50;;;;;;;-145.23;100.00;58621.06;5086150;28;20412;-51
2022/05/12 10:41:45;;;;;;;1.17;0.85;;;;;;;-145.23;100.00;58621.06;5078511;28;20501;-52
2022/05/12 10:44:32;;;;;;;4.10;1.38;;;;;;;-145.23;100.00;58621.06;5075206;28;20236;-51
2022/05/12 10:47:02;;;;;;;1.30;1.13;;;;;;;-145.23;100.00;58621.06;5085369;28;20503;-51
2022/05/12 10:49:37;;;;;;;1.80;0.65;;;;;;;-145.23;100.00;58621.06;5092850;28;20281;-53
2022/05/12 10:52:14;;;;;;;2.88;0.65;;;;;;;-145.23;100.00;58621.06;5101581;28;20253;-51
2022/05/12 10:54:47;;;;;;;3.60;0.85;;;;;;;-145.23;100.00;58621.06;5100410;28;20285;-51
2022/05/12 10:57:26;;;;;;;1.92;0.90;;;;;;;-145.23;100.00;58621.06;5094287;28;20417;-52
2022/05/12 11:00:09;;;;;;;10.07;1.00;;;;;;;-145.23;100.00;58621.06;5096693;28;20302;-52
2022/05/12 11:02:40;;;;;;;3.65;1.02;;;;;;;-145.23;100.00;58621.06;5082130;28;20311;-53
2022/05/12 11:05:22;;;;;;;1.05;0.82;;;;;;;-145.23;100.00;58621.06;5092520;28;20740;-54
2022/05/12 11:07:52;;;;;;;3.72;1.00;;;;;;;-145.23;100.00;58621.06;5099542;28;20329;-52
2022/05/12 11:10:25;;;;;;;1.55;1.00;;;;;;;-145.23;100.00;58621.06;5093035;28;20222;-53
2022/05/12 11:12:54;;;;;;;2.00;0.85;;;;;;;-145.23;100.00;58621.06;5097266;28;20294;-52
2022/05/12 11:15:23;;;;;;;2.90;0.82;;;;;;;-145.23;100.00;58621.06;5098114;28;20228;-52
2022/05/12 11:17:54;;;;;;;2.17;0.80;;;;;;;-145.23;100.00;58621.06;5095232;28;20280;-53
2022/05/12 11:20:25;;;;;;;3.00;1.15;;;;;;;-145.23;100.00;58621.06;5099665;28;20469;-52
2022/05/12 11:23:03;;;;;;;3.33;1.25;;;;;;;-145.23;100.00;58621.06;5101162;28;20482;-52
2022/05/12 11:25:34;;;;;;;0.85;0.80;;;;;;;-145.23;100.00;58621.06;5099131;28;20257;-53
2022/05/12 11:30:52;;;;;;;1.33;1.23;;;;;;;-145.23;100.00;58621.06;5066523;28;20595;-52
2022/05/12 11:33:24;;;;;;;1.85;1.20;;;;;;;-145.23;100.00;58621.06;5099597;28;20234;-52
2022/05/12 11:35:53;;;;;;;4.10;1.30;;;;;;;-145.23;100.00;58621.06;5105253;28;20237;-54